Time;durP1;ratioP1;P1;durP2;ratioP2;P2;SDS_P1;SDS_P2;PMS_P1;PMS_P2;Temp;Humidity;BMP_temperature;BMP_pressure;BME280_temperature;BME280_humidity;BME280_pressure;Samples;Min_cycle;Max_cycle;Signal;HPM_P1;HPM_P2
2022/12/29 00:01:41;;;;;;;4.80;1.30;;;;;;;8.53;99.08;100103.09;5014613;28;20531;-76
2022/12/29 00:04:13;;;;;;;4.80;1.23;;;;;;;8.64;98.65;100103.72;5005940;28;20551;-72
2022/12/29 00:06:40;;;;;;;5.87;1.73;;;;;;;8.68;98.43;100102.03;5012991;28;20464;-74
2022/12/29 00:11:31;;;;;;;5.85;1.58;;;;;;;8.71;98.33;100101.41;5027170;23;20518;-69
2022/12/29 00:16:41;;;;;;;5.20;1.20;;;;;;;8.63;97.22;100102.09;4980674;28;20482;-70
2022/12/29 00:35:07;;;;;;;4.80;1.17;;;;;;;8.69;97.37;100090.91;5010686;28;20845;-70
2022/12/29 00:35:45;;;;;;;5.80;1.37;;;;;;;8.80;98.13;100081.47;5008719;28;20510;-71
2022/12/29 00:46:25;;;;;;;5.47;1.43;;;;;;;8.65;99.27;100065.59;5012305;28;20557;-70
2022/12/29 00:51:37;;;;;;;7.10;1.73;;;;;;;8.62;99.64;100066.19;5008825;28;20466;-70
2022/12/29 00:54:04;;;;;;;4.93;1.50;;;;;;;8.58;99.33;100067.91;5012482;28;20460;-70
2022/12/29 00:56:30;;;;;;;5.23;1.30;;;;;;;8.64;100.00;100069.41;5011352;28;20494;-71
2022/12/29 00:59:01;;;;;;;7.57;1.83;;;;;;;8.64;100.00;100066.72;5012979;28;20491;-70
2022/12/29 01:01:28;;;;;;;4.87;1.30;;;;;;;8.64;100.00;100072.13;5013062;28;20556;-70
2022/12/29 01:03:54;;;;;;;5.00;1.10;;;;;;;8.61;100.00;100061.91;5011618;28;20550;-70
2022/12/29 01:06:21;;;;;;;4.77;1.23;;;;;;;8.56;99.64;100062.81;5012040;28;20977;-69
2022/12/29 01:10:09;;;;;;;4.47;1.20;;;;;;;8.63;99.57;100061.59;5011955;28;20459;-70
2022/12/29 01:11:35;;;;;;;6.23;1.17;;;;;;;8.64;100.00;100060.53;5011722;28;20490;-69
2022/12/29 01:14:01;;;;;;;5.27;1.47;;;;;;;8.65;100.00;100052.09;5011240;28;20531;-70
2022/12/29 01:16:28;;;;;;;4.70;1.23;;;;;;;8.65;99.19;100049.41;5011773;28;20292;-70
2022/12/29 01:18:54;;;;;;;5.40;1.30;;;;;;;8.72;98.17;100060.63;5011799;28;20538;-70
2022/12/29 01:21:21;;;;;;;4.40;1.00;;;;;;;8.75;98.23;100041.09;5013260;28;20543;-69
2022/12/29 01:23:49;;;;;;;4.50;1.00;;;;;;;8.79;98.37;100050.19;5010056;28;20496;-69
2022/12/29 01:26:18;;;;;;;5.83;1.03;;;;;;;8.81;98.18;100061.50;5013262;28;20559;-70
2022/12/29 01:28:45;;;;;;;4.70;1.20;;;;;;;8.89;98.38;100064.56;5011637;28;20456;-71
2022/12/29 01:31:15;;;;;;;4.90;1.50;;;;;;;8.86;98.55;100049.00;5013200;28;20518;-70
2022/12/29 01:33:42;;;;;;;5.30;1.33;;;;;;;8.90;98.83;100061.59;5010580;28;20466;-70
2022/12/29 01:36:11;;;;;;;4.93;1.30;;;;;;;8.83;100.00;100053.09;5013078;28;21005;-69
2022/12/29 01:38:38;;;;;;;5.67;1.57;;;;;;;8.78;99.89;100055.91;5010813;28;20460;-69
2022/12/29 01:41:07;;;;;;;5.13;1.40;;;;;;;8.74;100.00;100061.09;5012956;28;20531;-69
2022/12/29 01:43:43;;;;;;;6.23;1.50;;;;;;;8.72;100.00;100062.50;5011423;28;20518;-69
2022/12/29 01:46:18;;;;;;;4.80;1.40;;;;;;;8.66;100.00;100064.50;5011394;28;20518;-71
2022/12/29 01:48:47;;;;;;;4.43;0.83;;;;;;;8.63;100.00;100057.00;5011336;28;20542;-71
2022/12/29 01:51:13;;;;;;;5.60;1.27;;;;;;;8.64;100.00;100049.72;5011355;28;21026;-70
2022/12/29 01:53:40;;;;;;;4.53;0.97;;;;;;;8.62;100.00;100050.00;5012174;28;20902;-70
2022/12/29 01:56:13;;;;;;;4.77;1.20;;;;;;;8.58;100.00;100035.50;5011654;28;20483;-69
2022/12/29 01:58:45;;;;;;;4.80;1.27;;;;;;;8.55;100.00;100022.63;5012232;28;20552;-70
2022/12/29 02:01:12;;;;;;;7.53;1.33;;;;;;;8.52;100.00;100020.53;5015366;28;20516;-70
2022/12/29 02:03:38;;;;;;;5.20;1.37;;;;;;;8.54;100.00;100035.34;5015792;28;20502;-70
2022/12/29 02:06:10;;;;;;;4.40;0.87;;;;;;;8.55;100.00;100023.44;5013995;28;20567;-70
2022/12/29 02:08:38;;;;;;;4.93;1.13;;;;;;;8.60;100.00;100019.81;5012801;28;20527;-70
2022/12/29 02:11:06;;;;;;;5.33;1.53;;;;;;;8.56;100.00;100016.13;5015526;28;20570;-70
2022/12/29 02:13:34;;;;;;;4.87;0.97;;;;;;;8.53;100.00;100022.13;5016397;28;20587;-70
2022/12/29 02:16:09;;;;;;;5.37;1.27;;;;;;;8.60;100.00;100017.13;5016022;28;20539;-70
2022/12/29 02:18:44;;;;;;;5.07;1.63;;;;;;;8.59;100.00;99997.44;5014627;28;20466;-70
2022/12/29 02:22:00;;;;;;;7.37;1.60;;;;;;;8.57;100.00;100002.31;5015230;28;20515;-70
2022/12/29 02:24:53;;;;;;;5.20;1.00;;;;;;;8.63;100.00;100013.00;4922545;29;20567;-70
2022/12/29 02:27:35;;;;;;;5.10;1.20;;;;;;;8.67;100.00;100000.50;5006517;28;21004;-70
2022/12/29 02:30:13;;;;;;;5.53;1.30;;;;;;;8.73;99.93;100002.81;5016251;28;20464;-70
2022/12/29 02:32:49;;;;;;;4.90;1.00;;;;;;;8.78;100.00;100002.69;5014812;28;20890;-70
2022/12/29 02:35:24;;;;;;;6.20;1.00;;;;;;;8.83;98.75;99999.09;5014565;28;20551;-71
2022/12/29 02:38:01;;;;;;;4.90;1.20;;;;;;;8.89;97.74;100000.56;5014478;28;20553;-70
2022/12/29 02:40:36;;;;;;;5.50;1.43;;;;;;;8.95;98.14;100001.25;5015767;28;20507;-70
2022/12/29 02:43:13;;;;;;;5.80;1.10;;;;;;;9.00;96.05;100001.16;5013122;28;20546;-70
2022/12/29 02:45:48;;;;;;;4.70;1.13;;;;;;;9.01;95.88;99995.44;5013401;28;21017;-70
2022/12/29 02:48:21;;;;;;;5.40;1.13;;;;;;;9.07;95.83;99990.69;5014247;28;20530;-71
2022/12/29 02:50:54;;;;;;;5.60;1.53;;;;;;;9.16;94.61;99986.16;5014279;28;20566;-71
2022/12/29 02:54:40;;;;;;;6.30;1.47;;;;;;;9.19;93.90;99990.97;5012914;28;20472;-71
2022/12/29 02:56:08;;;;;;;5.20;1.10;;;;;;;9.20;93.59;99991.75;4995357;28;20437;-72
2022/12/29 02:58:35;;;;;;;5.53;1.80;;;;;;;9.30;93.79;99981.53;5010415;28;21007;-71
2022/12/29 03:01:17;;;;;;;4.50;1.10;;;;;;;9.36;92.41;99993.00;5015170;28;20221;-71
2022/12/29 03:03:56;;;;;;;5.77;1.30;;;;;;;9.45;91.86;99980.34;5010852;28;20467;-71
2022/12/29 03:06:33;;;;;;;8.20;1.70;;;;;;;9.46;91.85;99970.31;5014271;28;20486;-70
2022/12/29 03:09:10;;;;;;;8.73;1.20;;;;;;;9.50;91.32;99952.38;5012793;28;20979;-72
2022/12/29 03:17:29;;;;;;;5.07;1.17;;;;;;;9.78;88.14;99953.00;5013580;28;20468;-71
2022/12/29 03:20:04;;;;;;;5.93;1.57;;;;;;;9.83;88.21;99955.59;5012819;28;20555;-71
2022/12/29 03:22:34;;;;;;;5.17;1.10;;;;;;;9.79;87.52;99950.00;5013833;28;20483;-71
2022/12/29 03:25:05;;;;;;;4.50;1.07;;;;;;;9.88;88.21;99957.38;5013235;28;20487;-71
2022/12/29 03:27:37;;;;;;;4.87;0.90;;;;;;;9.90;88.37;99958.63;5014581;28;20466;-71
2022/12/29 03:30:06;;;;;;;5.03;1.17;;;;;;;9.91;88.00;99952.09;5012672;28;20490;-70
2022/12/29 03:32:35;;;;;;;5.40;1.10;;;;;;;9.94;87.76;99961.50;5012290;28;20479;-71
2022/12/29 03:35:05;;;;;;;5.30;1.50;;;;;;;10.00;86.85;99957.56;5013528;28;20551;-71
2022/12/29 03:37:37;;;;;;;4.50;1.00;;;;;;;10.08;87.39;99951.38;5012689;28;20556;-71
2022/12/29 03:40:05;;;;;;;4.67;1.07;;;;;;;10.09;86.60;99953.78;5013403;28;20491;-71
2022/12/29 03:42:36;;;;;;;4.43;0.90;;;;;;;10.13;86.23;99955.84;5013746;28;20466;-70
2022/12/29 03:45:05;;;;;;;4.20;0.90;;;;;;;10.12;86.53;99963.19;5014437;28;20460;-71
2022/12/29 03:47:31;;;;;;;5.07;1.30;;;;;;;10.21;85.66;99977.53;5012338;28;20472;-70
2022/12/29 03:49:58;;;;;;;6.40;0.93;;;;;;;10.26;85.45;99977.41;5013523;28;20893;-71
2022/12/29 03:52:26;;;;;;;4.60;1.00;;;;;;;10.28;85.33;99977.91;5013485;28;20538;-70
2022/12/29 03:54:52;;;;;;;5.07;1.20;;;;;;;10.33;85.06;99968.84;5005074;28;20464;-70
2022/12/29 03:57:19;;;;;;;4.70;1.20;;;;;;;10.25;86.26;99967.72;5014142;28;20496;-71
2022/12/29 03:59:46;;;;;;;4.90;1.20;;;;;;;10.32;85.58;99965.34;5012058;28;20643;-70
2022/12/29 04:02:12;;;;;;;5.33;1.10;;;;;;;10.30;85.31;99947.81;5014761;28;20543;-71
2022/12/29 04:04:39;;;;;;;5.83;1.30;;;;;;;10.34;85.75;99944.16;5014339;28;20452;-71
2022/12/29 04:07:06;;;;;;;7.00;1.33;;;;;;;10.34;85.96;99954.19;5012437;28;20468;-71
2022/12/29 04:09:34;;;;;;;5.20;1.00;;;;;;;10.37;85.50;99955.50;5012541;28;20554;-72
2022/12/29 04:12:00;;;;;;;3.80;0.70;;;;;;;10.41;85.56;99961.88;5013044;28;21020;-71
2022/12/29 04:14:27;;;;;;;4.13;0.87;;;;;;;10.31;85.75;99952.94;5013836;28;20500;-70
2022/12/29 04:16:54;;;;;;;4.70;1.10;;;;;;;10.39;85.52;99945.13;5013081;28;20460;-72
2022/12/29 04:19:20;;;;;;;4.10;0.80;;;;;;;10.45;85.09;99949.31;5011737;28;20468;-72
2022/12/29 04:21:47;;;;;;;4.97;1.20;;;;;;;10.45;86.13;99960.13;5010503;28;20546;-71
2022/12/29 04:24:14;;;;;;;5.10;1.03;;;;;;;10.39;85.50;99956.75;5013670;28;20531;-72
2022/12/29 04:26:42;;;;;;;4.00;0.73;;;;;;;10.35;86.32;99940.34;5012874;28;20555;-72
2022/12/29 04:29:08;;;;;;;4.20;1.03;;;;;;;10.38;86.47;99938.13;5013081;28;20444;-72
2022/12/29 04:31:35;;;;;;;4.47;0.97;;;;;;;10.45;85.96;99944.69;5012555;28;20570;-70
2022/12/29 04:34:02;;;;;;;4.40;0.97;;;;;;;10.40;86.54;99925.84;5013787;28;20487;-71
2022/12/29 04:36:28;;;;;;;4.73;1.10;;;;;;;10.44;85.22;99937.66;5012156;28;20474;-72
2022/12/29 04:38:55;;;;;;;4.20;0.97;;;;;;;10.42;85.80;99928.25;5013515;28;20790;-71
2022/12/29 04:41:21;;;;;;;5.23;1.10;;;;;;;10.40;86.53;99925.84;5011256;28;20479;-72
2022/12/29 04:43:49;;;;;;;4.27;1.00;;;;;;;10.37;85.77;99923.81;5013383;28;20987;-71
2022/12/29 04:46:16;;;;;;;4.30;0.97;;;;;;;10.43;85.71;99936.06;5012086;28;20478;-71
2022/12/29 04:48:43;;;;;;;4.20;1.00;;;;;;;10.44;85.42;99926.81;5011887;28;20964;-71
2022/12/29 04:51:10;;;;;;;7.07;1.50;;;;;;;10.46;85.77;99934.66;5010441;28;20562;-71
2022/12/29 04:53:36;;;;;;;4.63;1.03;;;;;;;10.48;85.39;99927.00;5013420;28;20519;-71
2022/12/29 04:56:03;;;;;;;5.20;1.00;;;;;;;10.54;84.66;99925.75;5012248;28;20487;-71
2022/12/29 04:58:30;;;;;;;5.80;1.40;;;;;;;10.50;85.86;99920.16;5012478;28;20495;-71
2022/12/29 05:00:58;;;;;;;5.13;1.30;;;;;;;10.47;85.94;99926.19;5011392;28;20932;-71
2022/12/29 05:03:24;;;;;;;4.53;0.87;;;;;;;10.50;86.56;99927.50;5011992;28;21008;-71
2022/12/29 05:05:54;;;;;;;5.27;1.60;;;;;;;10.46;86.15;99935.44;5012800;28;21051;-71
2022/12/29 05:08:20;;;;;;;4.90;1.10;;;;;;;10.51;86.09;99929.88;5009171;28;20470;-71
2022/12/29 05:10:47;;;;;;;4.93;1.20;;;;;;;10.58;86.21;99921.25;5010196;28;20487;-71
2022/12/29 05:13:14;;;;;;;4.20;0.70;;;;;;;10.60;85.88;99919.84;5011046;28;21023;-73
2022/12/29 05:15:41;;;;;;;4.40;0.83;;;;;;;10.63;85.52;99907.59;5013196;28;20547;-72
2022/12/29 05:18:09;;;;;;;4.73;1.20;;;;;;;10.72;85.32;99916.50;5011869;28;20460;-71
2022/12/29 05:20:35;;;;;;;4.60;1.00;;;;;;;10.68;85.59;99910.13;5012192;28;20571;-71
2022/12/29 05:23:02;;;;;;;5.97;1.20;;;;;;;10.69;85.89;99895.47;5011316;28;20563;-72
2022/12/29 05:25:28;;;;;;;4.87;1.17;;;;;;;10.79;85.53;99891.63;5013071;28;20446;-71
2022/12/29 05:27:55;;;;;;;4.93;1.27;;;;;;;10.77;86.42;99894.69;5011350;28;20491;-72
2022/12/29 05:30:22;;;;;;;4.67;0.97;;;;;;;10.78;85.39;99898.97;5010398;28;20490;-70
2022/12/29 05:32:48;;;;;;;4.30;1.00;;;;;;;10.78;85.45;99895.47;5013242;28;20520;-71
2022/12/29 05:35:16;;;;;;;5.00;0.90;;;;;;;10.81;85.62;99890.22;5015501;28;20486;-72
2022/12/29 05:37:43;;;;;;;5.23;1.00;;;;;;;10.83;85.01;99895.31;5014891;28;20539;-72
2022/12/29 05:40:10;;;;;;;4.83;1.07;;;;;;;10.90;84.96;99892.13;5015214;28;20482;-71
2022/12/29 05:42:37;;;;;;;4.10;0.87;;;;;;;10.82;85.97;99893.72;5016505;28;20444;-73
2022/12/29 05:45:06;;;;;;;5.27;1.10;;;;;;;10.86;85.56;99887.34;5016891;28;20456;-72
2022/12/29 05:47:34;;;;;;;5.70;1.23;;;;;;;10.96;84.66;99885.41;5017416;28;20534;-73
2022/12/29 05:50:01;;;;;;;4.60;1.30;;;;;;;10.98;84.99;99907.56;5015468;28;20480;-71
2022/12/29 05:52:29;;;;;;;4.67;1.17;;;;;;;11.03;85.11;99899.28;5017279;28;20503;-73
2022/12/29 05:54:55;;;;;;;4.30;1.00;;;;;;;10.94;85.87;99893.88;5012811;28;20570;-71
2022/12/29 05:57:22;;;;;;;4.30;1.10;;;;;;;11.01;85.31;99890.66;5016905;28;21021;-70
2022/12/29 05:59:48;;;;;;;4.57;1.00;;;;;;;11.05;85.28;99883.50;5014207;28;20511;-72
2022/12/29 06:02:15;;;;;;;6.03;1.30;;;;;;;10.95;86.66;99864.88;5015801;28;20465;-73
2022/12/29 06:04:42;;;;;;;5.03;1.13;;;;;;;10.95;86.19;99875.72;5015247;28;20543;-72
2022/12/29 06:07:08;;;;;;;4.40;0.90;;;;;;;10.97;86.04;99878.88;5016018;28;20448;-72
2022/12/29 06:09:36;;;;;;;5.10;1.07;;;;;;;11.00;85.92;99867.41;5013170;28;20491;-72
2022/12/29 06:12:03;;;;;;;5.73;1.20;;;;;;;11.02;85.37;99879.53;5008374;28;20547;-71
2022/12/29 06:14:29;;;;;;;4.73;1.10;;;;;;;10.95;86.57;99879.22;5012312;28;20516;-72
2022/12/29 06:16:56;;;;;;;6.57;1.23;;;;;;;10.89;86.43;99879.69;5016102;28;20468;-73
2022/12/29 06:19:23;;;;;;;4.90;1.20;;;;;;;10.94;85.73;99883.03;5012154;28;20464;-72
2022/12/29 06:21:49;;;;;;;4.73;1.37;;;;;;;11.09;85.08;99876.31;5012853;28;20444;-72
2022/12/29 06:24:16;;;;;;;4.20;1.00;;;;;;;11.17;84.68;99880.94;5014728;28;20499;-72
2022/12/29 06:26:44;;;;;;;4.83;1.17;;;;;;;11.21;84.71;99878.38;5015669;28;20475;-71
2022/12/29 06:29:11;;;;;;;4.40;1.00;;;;;;;11.24;84.48;99888.56;5013623;28;20559;-72
2022/12/29 06:31:37;;;;;;;4.27;1.00;;;;;;;11.25;85.03;99890.16;5014330;28;20471;-74
2022/12/29 06:34:04;;;;;;;4.90;1.10;;;;;;;11.26;84.50;99894.47;5012521;28;20487;-73
2022/12/29 06:36:30;;;;;;;5.90;1.50;;;;;;;11.25;84.40;99890.97;5014381;28;20555;-72
2022/12/29 06:38:57;;;;;;;4.10;0.90;;;;;;;11.25;84.44;99884.75;5014505;28;20464;-72
2022/12/29 06:41:23;;;;;;;4.73;1.03;;;;;;;11.24;84.17;99875.00;5015290;28;20570;-72
2022/12/29 06:43:51;;;;;;;4.30;0.90;;;;;;;11.28;84.13;99884.88;5013657;28;20456;-75
2022/12/29 06:46:18;;;;;;;4.70;1.20;;;;;;;11.29;84.23;99880.28;5015999;28;20448;-72
2022/12/29 06:48:45;;;;;;;4.77;1.10;;;;;;;11.25;84.55;99895.59;5014183;28;20464;-73
2022/12/29 06:51:11;;;;;;;4.50;0.80;;;;;;;11.22;84.79;99886.19;5013537;28;20523;-71
2022/12/29 06:53:38;;;;;;;5.13;0.90;;;;;;;11.24;84.81;99888.56;5012778;28;20583;-71
2022/12/29 06:56:05;;;;;;;5.50;1.30;;;;;;;11.19;86.05;99894.16;5013785;28;20464;-70
2022/12/29 06:58:32;;;;;;;4.20;0.80;;;;;;;11.16;85.63;99898.31;5013551;28;20464;-71
2022/12/29 07:01:00;;;;;;;4.93;1.13;;;;;;;11.14;85.91;99903.25;5013378;28;20519;-70
2022/12/29 07:03:26;;;;;;;4.20;0.90;;;;;;;11.12;86.39;99897.38;5014319;28;20499;-70
2022/12/29 07:05:54;;;;;;;4.27;0.90;;;;;;;11.09;86.64;99908.84;5012179;28;20503;-71
2022/12/29 07:08:20;;;;;;;4.33;1.03;;;;;;;11.08;86.32;99904.53;5004287;28;20456;-71
2022/12/29 07:10:47;;;;;;;4.67;0.90;;;;;;;11.08;86.66;99913.47;5013729;28;20901;-71
2022/12/29 07:13:13;;;;;;;5.00;1.00;;;;;;;11.13;86.31;99909.78;5014809;28;20500;-72
2022/12/29 07:15:40;;;;;;;4.40;0.80;;;;;;;11.19;86.16;99903.06;5015334;28;20836;-71
2022/12/29 07:18:08;;;;;;;4.70;0.80;;;;;;;11.20;85.91;99909.28;5009184;28;20503;-71
2022/12/29 07:20:35;;;;;;;4.93;1.20;;;;;;;11.21;85.60;99911.69;5012790;28;21028;-70
2022/12/29 07:23:03;;;;;;;4.93;1.00;;;;;;;11.18;86.08;99900.69;5014577;28;20440;-71
2022/12/29 07:25:29;;;;;;;4.80;0.90;;;;;;;11.11;86.25;99901.16;5013681;28;20492;-70
2022/12/29 07:27:56;;;;;;;5.80;0.97;;;;;;;11.09;86.61;99901.50;5015238;28;20487;-70
2022/12/29 07:30:22;;;;;;;5.00;1.17;;;;;;;11.11;86.61;99898.47;5012056;28;20479;-69
2022/12/29 07:32:49;;;;;;;5.03;1.00;;;;;;;11.10;86.74;99900.38;5012599;28;20515;-70
2022/12/29 07:35:17;;;;;;;4.37;0.90;;;;;;;11.11;87.15;99893.84;5014280;28;20857;-70
2022/12/29 07:37:44;;;;;;;4.30;0.90;;;;;;;11.09;87.07;99887.94;5013680;28;20555;-71
2022/12/29 07:40:12;;;;;;;4.70;1.23;;;;;;;11.14;87.26;99886.97;5013895;28;20516;-71
2022/12/29 07:42:42;;;;;;;5.37;1.33;;;;;;;11.11;87.41;99883.03;5010200;28;22194;-71
2022/12/29 07:45:10;;;;;;;4.60;1.00;;;;;;;11.08;87.81;99889.06;5012284;28;20591;-70
2022/12/29 07:47:36;;;;;;;6.23;0.87;;;;;;;10.97;88.62;99890.50;5011940;28;20459;-70
2022/12/29 07:50:04;;;;;;;4.60;1.07;;;;;;;10.92;89.11;99887.19;5013353;28;21108;-70
2022/12/29 07:52:31;;;;;;;3.97;0.70;;;;;;;11.06;88.22;99890.50;5012769;28;20468;-73
2022/12/29 07:54:58;;;;;;;3.73;0.53;;;;;;;11.08;87.36;99896.41;5013320;28;20479;-73
2022/12/29 07:57:25;;;;;;;5.20;1.20;;;;;;;11.11;87.17;99895.75;5009714;28;20910;-73
2022/12/29 07:59:51;;;;;;;4.30;1.00;;;;;;;11.13;87.70;99898.16;5010999;28;20488;-73
2022/12/29 08:02:18;;;;;;;4.20;0.83;;;;;;;11.15;87.42;99891.28;5012728;28;20483;-73
2022/12/29 08:04:45;;;;;;;4.73;1.20;;;;;;;11.10;87.14;99889.53;5011797;28;20491;-73
2022/12/29 08:07:11;;;;;;;4.70;1.20;;;;;;;11.13;87.11;99890.81;5013993;28;20476;-73
2022/12/29 08:09:39;;;;;;;4.47;1.00;;;;;;;11.09;88.15;99884.44;5012299;28;21035;-74
2022/12/29 08:12:06;;;;;;;4.30;1.07;;;;;;;11.12;87.19;99891.94;5003058;28;20491;-73
2022/12/29 08:14:33;;;;;;;4.53;1.00;;;;;;;11.15;87.15;99890.50;5010239;28;20569;-73
2022/12/29 08:16:59;;;;;;;4.40;1.00;;;;;;;11.16;87.41;99892.91;5012945;28;20965;-72
2022/12/29 08:19:26;;;;;;;4.77;1.13;;;;;;;11.15;87.42;99899.41;5012167;28;20467;-73
2022/12/29 08:21:53;;;;;;;6.33;1.33;;;;;;;11.13;86.92;99890.03;5013658;28;20514;-73
2022/12/29 08:24:20;;;;;;;4.10;0.90;;;;;;;11.14;87.36;99908.66;5011648;28;20502;-75
2022/12/29 08:26:48;;;;;;;6.13;1.43;;;;;;;11.10;87.75;99910.41;5013013;28;20470;-74
2022/12/29 08:29:15;;;;;;;4.60;1.00;;;;;;;11.08;87.72;99901.84;5010704;28;20464;-73
2022/12/29 08:31:41;;;;;;;4.57;0.87;;;;;;;11.03;88.46;99889.25;5012842;28;20440;-73
2022/12/29 08:34:08;;;;;;;4.10;0.70;;;;;;;11.05;87.75;99881.56;5010574;28;20598;-74
2022/12/29 08:36:35;;;;;;;4.80;1.20;;;;;;;11.08;87.91;99888.28;5012696;28;20474;-73
2022/12/29 08:39:01;;;;;;;4.50;0.90;;;;;;;11.04;88.63;99879.19;5010835;28;20456;-72
2022/12/29 08:41:28;;;;;;;4.87;1.20;;;;;;;11.03;88.31;99878.41;5013789;28;20555;-74
2022/12/29 08:43:56;;;;;;;4.37;1.10;;;;;;;11.05;87.80;99888.91;5011353;28;20460;-73
2022/12/29 08:46:22;;;;;;;4.70;1.03;;;;;;;11.05;87.95;99883.50;5012188;28;20468;-74
2022/12/29 08:48:49;;;;;;;4.57;0.80;;;;;;;11.11;87.80;99880.31;5012987;28;20491;-71
2022/12/29 08:51:16;;;;;;;4.40;0.97;;;;;;;11.19;88.03;99881.38;5013481;28;20579;-70
2022/12/29 08:53:43;;;;;;;4.13;0.80;;;;;;;11.26;87.73;99889.84;5010041;28;20468;-72
2022/12/29 08:56:11;;;;;;;4.33;0.93;;;;;;;11.29;87.88;99878.34;5011080;28;21060;-70
2022/12/29 08:58:38;;;;;;;4.87;1.13;;;;;;;11.34;86.60;99882.81;5013195;28;20828;-75
2022/12/29 09:01:06;;;;;;;4.70;1.00;;;;;;;11.35;86.75;99879.75;5008147;28;20478;-72
2022/12/29 09:03:33;;;;;;;4.30;0.90;;;;;;;11.29;87.61;99881.06;5012300;28;20460;-72
2022/12/29 09:06:00;;;;;;;4.53;0.87;;;;;;;11.31;87.28;99867.97;5011890;28;20911;-73
2022/12/29 09:08:26;;;;;;;4.60;1.07;;;;;;;11.31;86.77;99876.09;5013054;28;20562;-72
2022/12/29 09:10:53;;;;;;;5.03;0.80;;;;;;;11.31;87.50;99859.84;5017431;28;20574;-72
2022/12/29 09:13:20;;;;;;;4.80;1.07;;;;;;;11.33;87.05;99854.06;5016305;28;20463;-72
2022/12/29 09:15:47;;;;;;;4.00;0.80;;;;;;;11.36;87.01;99859.66;5017634;28;20859;-73
2022/12/29 09:18:15;;;;;;;4.17;0.90;;;;;;;11.39;86.77;99862.84;5015918;28;20551;-73
2022/12/29 09:20:41;;;;;;;6.13;1.17;;;;;;;11.37;86.63;99863.94;5016161;28;20518;-73
2022/12/29 09:23:08;;;;;;;6.53;1.37;;;;;;;11.40;87.12;99865.22;5010732;28;20496;-73
2022/12/29 09:25:35;;;;;;;5.00;1.80;;;;;;;11.50;86.20;99875.72;5012830;28;20459;-73
2022/12/29 09:28:05;;;;;;;4.90;0.90;;;;;;;11.60;85.71;99871.88;5015074;28;20491;-72
2022/12/29 09:30:32;;;;;;;4.67;1.00;;;;;;;11.73;85.01;99860.00;5015205;28;20538;-72
2022/12/29 09:32:59;;;;;;;4.83;1.00;;;;;;;11.78;84.78;99851.69;5015404;28;20920;-74
2022/12/29 09:35:27;;;;;;;6.47;0.90;;;;;;;11.84;84.38;99857.75;5016502;28;21024;-75
2022/12/29 09:37:53;;;;;;;4.37;0.97;;;;;;;11.90;84.77;99844.78;5015560;28;20492;-73
2022/12/29 09:40:28;;;;;;;6.00;1.00;;;;;;;11.96;84.48;99844.28;5017425;28;20463;-73
2022/12/29 09:43:08;;;;;;;7.80;1.03;;;;;;;12.05;83.77;99830.66;5003748;28;20471;-73
2022/12/29 09:45:41;;;;;;;4.33;0.87;;;;;;;12.14;83.31;99850.38;5008866;28;20464;-73
2022/12/29 09:48:17;;;;;;;4.97;1.10;;;;;;;12.18;83.45;99854.03;5012928;28;20464;-72
2022/12/29 09:50:48;;;;;;;4.70;0.83;;;;;;;12.20;83.78;99842.84;5016300;28;20479;-75
2022/12/29 09:53:19;;;;;;;5.20;1.30;;;;;;;12.24;82.93;99858.13;5015670;28;20460;-76
2022/12/29 09:55:50;;;;;;;4.00;0.70;;;;;;;12.29;83.09;99870.72;5003670;28;20972;-71
2022/12/29 09:58:23;;;;;;;4.70;0.90;;;;;;;12.43;81.99;99867.75;5008983;28;20508;-71
2022/12/29 10:00:55;;;;;;;4.17;0.90;;;;;;;12.47;81.75;99872.19;5015490;28;20496;-72
2022/12/29 10:03:24;;;;;;;4.83;0.90;;;;;;;12.53;82.03;99872.81;5016427;28;20983;-70
2022/12/29 10:05:58;;;;;;;4.67;1.00;;;;;;;12.54;81.24;99864.31;5014754;28;20828;-71
2022/12/29 10:08:36;;;;;;;5.00;1.17;;;;;;;12.52;81.82;99863.03;4999972;28;20452;-72
2022/12/29 10:11:15;;;;;;;4.27;0.77;;;;;;;12.57;81.73;99865.56;5014505;28;20996;-69
2022/12/29 10:13:59;;;;;;;4.73;1.10;;;;;;;12.58;81.92;99864.47;5013426;28;20492;-71
2022/12/29 10:16:36;;;;;;;7.40;0.97;;;;;;;12.62;82.11;99855.31;5013890;28;20467;-71
2022/12/29 10:19:21;;;;;;;4.27;0.70;;;;;;;12.62;81.72;99858.03;5014986;28;20956;-71
2022/12/29 10:22:01;;;;;;;4.77;1.10;;;;;;;12.69;81.80;99843.88;5002325;28;20517;-72
2022/12/29 10:24:30;;;;;;;4.00;0.70;;;;;;;12.80;81.76;99852.44;5007821;28;20463;-71
2022/12/29 10:26:58;;;;;;;5.80;0.90;;;;;;;12.91;80.79;99858.25;5011089;28;20518;-72
2022/12/29 10:29:31;;;;;;;7.70;1.33;;;;;;;13.00;80.93;99864.41;5013395;28;20476;-72
2022/12/29 10:32:00;;;;;;;4.30;0.90;;;;;;;13.07;80.11;99853.78;5012750;28;20464;-71
2022/12/29 10:34:32;;;;;;;5.43;0.70;;;;;;;13.20;79.47;99857.34;5011963;28;20582;-70
2022/12/29 10:37:06;;;;;;;4.00;0.60;;;;;;;13.30;78.31;99857.72;5010294;28;20472;-71
2022/12/29 10:39:37;;;;;;;6.80;1.03;;;;;;;13.40;78.25;99861.91;5014695;28;20895;-70
2022/12/29 10:42:12;;;;;;;6.57;1.27;;;;;;;13.42;77.94;99858.88;5013391;28;20887;-73
2022/12/29 10:44:39;;;;;;;5.37;0.80;;;;;;;13.48;77.41;99858.31;5010911;28;20447;-71
2022/12/29 10:47:10;;;;;;;4.40;0.73;;;;;;;13.49;77.45;99859.88;5014055;28;20502;-71
2022/12/29 10:49:42;;;;;;;4.93;0.80;;;;;;;13.53;77.61;99860.00;5014415;28;20507;-71
2022/12/29 10:52:12;;;;;;;4.60;0.80;;;;;;;13.51;77.42;99845.97;5008077;28;20989;-70
2022/12/29 10:54:46;;;;;;;4.17;0.70;;;;;;;13.56;77.26;99841.09;5012604;28;20479;-73
2022/12/29 10:57:25;;;;;;;4.40;0.70;;;;;;;13.45;78.40;99847.31;5013835;28;20957;-70
2022/12/29 10:59:51;;;;;;;4.33;0.90;;;;;;;13.36;78.78;99834.59;5014832;28;20586;-72
2022/12/29 11:02:36;;;;;;;4.30;0.90;;;;;;;13.33;78.66;99839.94;5013022;28;20571;-74
2022/12/29 11:05:08;;;;;;;4.50;0.73;;;;;;;13.41;78.31;99851.81;5011948;28;20494;-71
2022/12/29 11:07:37;;;;;;;4.10;0.90;;;;;;;13.35;78.01;99843.88;5014732;28;20854;-71
2022/12/29 11:10:22;;;;;;;5.70;1.00;;;;;;;13.37;78.51;99847.09;5014044;28;20495;-71
2022/12/29 11:13:12;;;;;;;4.97;0.90;;;;;;;13.43;77.59;99847.66;5012574;28;20819;-71
2022/12/29 11:15:40;;;;;;;6.97;0.90;;;;;;;13.46;77.84;99843.44;5009765;28;20492;-70
2022/12/29 11:18:19;;;;;;;4.43;0.70;;;;;;;13.48;78.42;99852.06;5015093;28;20460;-73
2022/12/29 11:20:46;;;;;;;4.93;0.77;;;;;;;13.47;77.61;99839.63;5012912;28;20490;-71
2022/12/29 11:23:27;;;;;;;4.40;0.67;;;;;;;13.50;77.74;99849.78;5013553;28;20551;-73
2022/12/29 11:26:16;;;;;;;4.97;1.47;;;;;;;13.40;78.27;99861.91;5013082;28;20829;-69
2022/12/29 11:28:45;;;;;;;9.30;0.90;;;;;;;13.42;78.01;99864.31;5008399;28;20459;-71
2022/12/29 11:31:17;;;;;;;4.17;0.83;;;;;;;13.35;79.54;99862.94;5010898;28;20483;-68
2022/12/29 11:33:43;;;;;;;4.10;0.63;;;;;;;13.29;80.13;99853.41;5011975;28;20473;-69
2022/12/29 11:36:14;;;;;;;4.37;0.93;;;;;;;13.10;82.01;99864.78;5010015;28;20486;-68
2022/12/29 11:38:47;;;;;;;4.10;0.80;;;;;;;12.99;81.91;99862.81;5006516;28;21040;-67
2022/12/29 11:41:21;;;;;;;5.50;0.93;;;;;;;12.95;82.18;99851.00;5013665;28;20587;-68
2022/12/29 11:43:49;;;;;;;4.43;1.03;;;;;;;12.80;84.92;99850.50;5010608;28;20546;-67
2022/12/29 11:46:19;;;;;;;5.30;1.00;;;;;;;12.64;87.03;99846.81;5011467;28;20460;-67
2022/12/29 11:48:48;;;;;;;4.30;0.70;;;;;;;12.45;89.68;99860.09;5012154;28;20791;-68
2022/12/29 11:51:22;;;;;;;4.77;0.87;;;;;;;12.18;91.66;99850.53;5012953;28;20488;-68
2022/12/29 11:53:54;;;;;;;4.27;0.67;;;;;;;11.99;92.89;99843.59;5013097;28;20460;-69
2022/12/29 11:56:32;;;;;;;4.50;0.77;;;;;;;11.78;95.47;99848.19;5012392;28;20562;-68
2022/12/29 11:58:59;;;;;;;4.97;0.80;;;;;;;11.62;97.25;99856.06;5010744;28;20492;-68
2022/12/29 12:01:33;;;;;;;5.00;0.80;;;;;;;11.39;97.62;99857.44;5008034;28;20472;-68
2022/12/29 12:04:03;;;;;;;4.20;0.70;;;;;;;11.30;99.12;99865.59;5008932;28;20447;-68
2022/12/29 12:06:32;;;;;;;4.10;0.70;;;;;;;11.25;99.11;99869.28;5012785;28;20468;-65
2022/12/29 12:09:05;;;;;;;3.90;0.60;;;;;;;11.29;99.37;99886.50;5012661;28;21006;-68
2022/12/29 12:11:37;;;;;;;4.27;0.70;;;;;;;11.32;99.22;99885.03;5008360;28;20567;-68
2022/12/29 12:14:13;;;;;;;3.90;0.73;;;;;;;11.26;100.00;99889.03;5012846;28;20456;-68
2022/12/29 12:16:44;;;;;;;3.90;0.70;;;;;;;11.29;100.00;99896.53;5012565;28;21059;-67
2022/12/29 12:19:20;;;;;;;4.43;0.90;;;;;;;11.22;100.00;99886.19;5012517;28;20487;-68
2022/12/29 12:21:51;;;;;;;3.83;0.67;;;;;;;11.13;100.00;99862.91;5012975;28;20570;-67